sensor_id;sensor_type;location;lat;lon;timestamp;temperature;humidity
12977;DHT22;6553;48.412;9.514;2023-02-15T00:01:41;19.40;48.20
12977;DHT22;6553;48.412;9.514;2023-02-15T00:04:08;19.50;48.20
12977;DHT22;6553;48.412;9.514;2023-02-15T00:06:35;19.40;48.00
12977;DHT22;6553;48.412;9.514;2023-02-15T00:09:02;19.40;48.10
12977;DHT22;6553;48.412;9.514;2023-02-15T00:11:29;19.40;48.10
12977;DHT22;6553;48.412;9.514;2023-02-15T00:16:42;19.40;48.00
12977;DHT22;6553;48.412;9.514;2023-02-15T00:19:10;19.40;48.10
12977;DHT22;6553;48.412;9.514;2023-02-15T00:21:38;19.40;48.60
12977;DHT22;6553;48.412;9.514;2023-02-15T00:24:07;19.40;48.10
12977;DHT22;6553;48.412;9.514;2023-02-15T00:26:35;19.40;48.10
12977;DHT22;6553;48.412;9.514;2023-02-15T00:29:03;19.40;48.10
12977;DHT22;6553;48.412;9.514;2023-02-15T00:31:30;19.40;48.00
12977;DHT22;6553;48.412;9.514;2023-02-15T00:34:11;19.40;48.00
12977;DHT22;6553;48.412;9.514;2023-02-15T00:36:45;19.40;48.00
12977;DHT22;6553;48.412;9.514;2023-02-15T00:39:14;19.40;47.90
12977;DHT22;6553;48.412;9.514;2023-02-15T00:41:40;19.40;48.00
12977;DHT22;6553;48.412;9.514;2023-02-15T00:44:07;19.40;47.90
12977;DHT22;6553;48.412;9.514;2023-02-15T00:46:33;19.30;47.90
12977;DHT22;6553;48.412;9.514;2023-02-15T00:48:59;19.30;47.90
12977;DHT22;6553;48.412;9.514;2023-02-15T00:51:26;19.40;47.90
12977;DHT22;6553;48.412;9.514;2023-02-15T00:53:52;19.40;47.90
12977;DHT22;6553;48.412;9.514;2023-02-15T00:56:18;19.40;48.00
12977;DHT22;6553;48.412;9.514;2023-02-15T00:58:44;19.30;47.90
12977;DHT22;6553;48.412;9.514;2023-02-15T01:01:16;19.40;48.00
12977;DHT22;6553;48.412;9.514;2023-02-15T01:03:44;19.30;47.80
12977;DHT22;6553;48.412;9.514;2023-02-15T01:06:12;19.40;47.90
12977;DHT22;6553;48.412;9.514;2023-02-15T01:08:42;19.40;47.90
12977;DHT22;6553;48.412;9.514;2023-02-15T01:11:12;19.40;47.90
12977;DHT22;6553;48.412;9.514;2023-02-15T01:13:40;19.30;47.80
12977;DHT22;6553;48.412;9.514;2023-02-15T01:16:07;19.40;47.80
12977;DHT22;6553;48.412;9.514;2023-02-15T01:18:33;19.30;47.70
12977;DHT22;6553;48.412;9.514;2023-02-15T01:21:15;19.30;47.80
12977;DHT22;6553;48.412;9.514;2023-02-15T01:23:43;19.30;47.80
12977;DHT22;6553;48.412;9.514;2023-02-15T01:26:11;19.30;47.80
12977;DHT22;6553;48.412;9.514;2023-02-15T01:28:38;19.30;47.70
12977;DHT22;6553;48.412;9.514;2023-02-15T01:31:12;19.30;47.70
12977;DHT22;6553;48.412;9.514;2023-02-15T01:33:39;19.30;47.70
12977;DHT22;6553;48.412;9.514;2023-02-15T01:36:06;19.30;47.80
12977;DHT22;6553;48.412;9.514;2023-02-15T01:38:32;19.30;47.80
12977;DHT22;6553;48.412;9.514;2023-02-15T01:40:58;19.30;47.70
12977;DHT22;6553;48.412;9.514;2023-02-15T01:43:57;19.30;47.70
12977;DHT22;6553;48.412;9.514;2023-02-15T01:46:49;19.30;47.70
12977;DHT22;6553;48.412;9.514;2023-02-15T01:49:20;19.30;48.30
12977;DHT22;6553;48.412;9.514;2023-02-15T01:51:51;19.30;47.60
12977;DHT22;6553;48.412;9.514;2023-02-15T01:54:32;19.30;47.60
12977;DHT22;6553;48.412;9.514;2023-02-15T01:57:06;19.30;47.70
12977;DHT22;6553;48.412;9.514;2023-02-15T01:59:37;19.30;47.70
12977;DHT22;6553;48.412;9.514;2023-02-15T02:02:07;19.30;48.10
12977;DHT22;6553;48.412;9.514;2023-02-15T02:04:48;19.30;47.60
12977;DHT22;6553;48.412;9.514;2023-02-15T02:07:20;19.30;47.60
12977;DHT22;6553;48.412;9.514;2023-02-15T02:09:48;19.30;47.60
12977;DHT22;6553;48.412;9.514;2023-02-15T02:12:16;19.30;47.60
12977;DHT22;6553;48.412;9.514;2023-02-15T02:14:44;19.30;47.60
12977;DHT22;6553;48.412;9.514;2023-02-15T02:17:49;19.20;47.50
12977;DHT22;6553;48.412;9.514;2023-02-15T02:26:19;19.20;47.50
12977;DHT22;6553;48.412;9.514;2023-02-15T02:35:00;19.20;47.50
12977;DHT22;6553;48.412;9.514;2023-02-15T02:40:56;19.20;47.40
12977;DHT22;6553;48.412;9.514;2023-02-15T02:43:55;19.20;47.40
12977;DHT22;6553;48.412;9.514;2023-02-15T02:49:38;19.20;47.50
12977;DHT22;6553;48.412;9.514;2023-02-15T02:52:34;19.20;47.40
12977;DHT22;6553;48.412;9.514;2023-02-15T02:55:40;19.20;47.40
12977;DHT22;6553;48.412;9.514;2023-02-15T02:58:23;19.20;47.40
12977;DHT22;6553;48.412;9.514;2023-02-15T03:00:55;19.20;47.50
12977;DHT22;6553;48.412;9.514;2023-02-15T03:03:32;19.20;47.40
12977;DHT22;6553;48.412;9.514;2023-02-15T03:06:13;19.20;47.30
12977;DHT22;6553;48.412;9.514;2023-02-15T03:08:55;19.20;47.20
12977;DHT22;6553;48.412;9.514;2023-02-15T03:11:28;19.20;47.30
12977;DHT22;6553;48.412;9.514;2023-02-15T03:13:55;19.20;47.30
12977;DHT22;6553;48.412;9.514;2023-02-15T03:16:22;19.20;47.30
12977;DHT22;6553;48.412;9.514;2023-02-15T03:19:05;19.20;47.40
12977;DHT22;6553;48.412;9.514;2023-02-15T03:21:45;19.20;47.30
12977;DHT22;6553;48.412;9.514;2023-02-15T03:24:26;19.20;47.30
12977;DHT22;6553;48.412;9.514;2023-02-15T03:26:59;19.20;47.30
12977;DHT22;6553;48.412;9.514;2023-02-15T03:29:29;19.10;47.10
12977;DHT22;6553;48.412;9.514;2023-02-15T03:32:00;19.20;47.30
12977;DHT22;6553;48.412;9.514;2023-02-15T03:34:30;19.20;47.30
12977;DHT22;6553;48.412;9.514;2023-02-15T03:39:56;19.10;47.20
12977;DHT22;6553;48.412;9.514;2023-02-15T03:42:53;19.10;47.20
12977;DHT22;6553;48.412;9.514;2023-02-15T03:45:30;19.10;47.20
12977;DHT22;6553;48.412;9.514;2023-02-15T03:47:58;19.10;47.20
12977;DHT22;6553;48.412;9.514;2023-02-15T03:50:29;19.10;47.20
12977;DHT22;6553;48.412;9.514;2023-02-15T03:53:18;19.10;47.30
12977;DHT22;6553;48.412;9.514;2023-02-15T03:55:48;19.10;47.00
12977;DHT22;6553;48.412;9.514;2023-02-15T03:58:18;19.10;47.10
12977;DHT22;6553;48.412;9.514;2023-02-15T04:01:18;19.10;47.10
12977;DHT22;6553;48.412;9.514;2023-02-15T04:04:20;19.10;47.10
12977;DHT22;6553;48.412;9.514;2023-02-15T04:06:47;19.10;47.10
12977;DHT22;6553;48.412;9.514;2023-02-15T04:09:13;19.10;47.00
12977;DHT22;6553;48.412;9.514;2023-02-15T04:11:58;19.10;47.10
12977;DHT22;6553;48.412;9.514;2023-02-15T04:14:24;19.10;47.00
12977;DHT22;6553;48.412;9.514;2023-02-15T04:17:09;19.10;47.00
12977;DHT22;6553;48.412;9.514;2023-02-15T04:19:35;19.10;47.00
12977;DHT22;6553;48.412;9.514;2023-02-15T04:22:20;19.10;47.10
12977;DHT22;6553;48.412;9.514;2023-02-15T04:25:05;19.10;47.00
12977;DHT22;6553;48.412;9.514;2023-02-15T04:27:48;19.10;47.00
12977;DHT22;6553;48.412;9.514;2023-02-15T04:30:19;19.10;47.00
12977;DHT22;6553;48.412;9.514;2023-02-15T04:32:47;19.10;46.90
12977;DHT22;6553;48.412;9.514;2023-02-15T04:35:14;19.10;46.90
12977;DHT22;6553;48.412;9.514;2023-02-15T04:37:40;19.00;46.80
12977;DHT22;6553;48.412;9.514;2023-02-15T04:40:09;19.00;46.90
12977;DHT22;6553;48.412;9.514;2023-02-15T04:42:36;19.10;47.00
12977;DHT22;6553;48.412;9.514;2023-02-15T04:45:02;19.10;47.00
12977;DHT22;6553;48.412;9.514;2023-02-15T04:47:28;19.10;47.00
12977;DHT22;6553;48.412;9.514;2023-02-15T04:49:54;19.00;46.90
12977;DHT22;6553;48.412;9.514;2023-02-15T04:52:20;19.00;46.80
12977;DHT22;6553;48.412;9.514;2023-02-15T04:54:45;19.10;47.00
12977;DHT22;6553;48.412;9.514;2023-02-15T04:57:12;19.00;46.90
12977;DHT22;6553;48.412;9.514;2023-02-15T04:59:38;19.00;46.80
12977;DHT22;6553;48.412;9.514;2023-02-15T05:02:03;19.00;46.80
12977;DHT22;6553;48.412;9.514;2023-02-15T05:04:29;19.10;46.90
12977;DHT22;6553;48.412;9.514;2023-02-15T05:06:55;19.00;46.90
12977;DHT22;6553;48.412;9.514;2023-02-15T05:09:21;19.00;46.80
12977;DHT22;6553;48.412;9.514;2023-02-15T05:11:47;19.10;46.90
12977;DHT22;6553;48.412;9.514;2023-02-15T05:14:12;19.10;46.80
12977;DHT22;6553;48.412;9.514;2023-02-15T05:16:38;19.00;46.80
12977;DHT22;6553;48.412;9.514;2023-02-15T05:19:04;19.00;46.70
12977;DHT22;6553;48.412;9.514;2023-02-15T05:21:31;19.00;46.70
12977;DHT22;6553;48.412;9.514;2023-02-15T05:23:58;19.00;46.80
12977;DHT22;6553;48.412;9.514;2023-02-15T05:26:24;19.00;46.60
12977;DHT22;6553;48.412;9.514;2023-02-15T05:29:10;19.00;46.80
12977;DHT22;6553;48.412;9.514;2023-02-15T05:31:36;19.00;46.60
12977;DHT22;6553;48.412;9.514;2023-02-15T05:34:03;19.00;46.70
12977;DHT22;6553;48.412;9.514;2023-02-15T05:36:29;19.00;46.70
12977;DHT22;6553;48.412;9.514;2023-02-15T05:38:55;19.00;46.70
12977;DHT22;6553;48.412;9.514;2023-02-15T05:41:21;19.00;46.80
12977;DHT22;6553;48.412;9.514;2023-02-15T05:43:47;19.00;46.70
12977;DHT22;6553;48.412;9.514;2023-02-15T05:46:13;19.00;46.80
12977;DHT22;6553;48.412;9.514;2023-02-15T05:48:38;19.00;46.70
12977;DHT22;6553;48.412;9.514;2023-02-15T05:51:09;19.00;46.80
12977;DHT22;6553;48.412;9.514;2023-02-15T05:53:39;19.00;46.60
12977;DHT22;6553;48.412;9.514;2023-02-15T05:56:07;19.00;46.70
12977;DHT22;6553;48.412;9.514;2023-02-15T05:58:39;19.00;46.70
12977;DHT22;6553;48.412;9.514;2023-02-15T06:01:16;19.00;46.60
12977;DHT22;6553;48.412;9.514;2023-02-15T06:03:45;19.00;46.60
12977;DHT22;6553;48.412;9.514;2023-02-15T06:06:11;19.00;46.60
12977;DHT22;6553;48.412;9.514;2023-02-15T06:08:37;19.00;46.60
12977;DHT22;6553;48.412;9.514;2023-02-15T06:11:04;19.00;46.50
12977;DHT22;6553;48.412;9.514;2023-02-15T06:13:30;19.00;46.50
12977;DHT22;6553;48.412;9.514;2023-02-15T06:15:57;19.00;46.50
12977;DHT22;6553;48.412;9.514;2023-02-15T06:18:23;19.00;46.60
12977;DHT22;6553;48.412;9.514;2023-02-15T06:20:49;19.00;47.20
12977;DHT22;6553;48.412;9.514;2023-02-15T06:23:16;19.00;46.60
12977;DHT22;6553;48.412;9.514;2023-02-15T06:25:41;19.00;46.60
12977;DHT22;6553;48.412;9.514;2023-02-15T06:28:07;19.00;46.50
12977;DHT22;6553;48.412;9.514;2023-02-15T06:30:33;19.00;46.60
12977;DHT22;6553;48.412;9.514;2023-02-15T06:32:59;19.00;46.60
12977;DHT22;6553;48.412;9.514;2023-02-15T06:35:25;19.00;46.60
12977;DHT22;6553;48.412;9.514;2023-02-15T06:37:51;19.00;46.60
12977;DHT22;6553;48.412;9.514;2023-02-15T06:40:17;19.00;46.50
12977;DHT22;6553;48.412;9.514;2023-02-15T06:42:42;19.00;46.60
12977;DHT22;6553;48.412;9.514;2023-02-15T06:45:09;19.00;46.50
12977;DHT22;6553;48.412;9.514;2023-02-15T06:47:36;19.00;46.60
12977;DHT22;6553;48.412;9.514;2023-02-15T06:50:04;19.00;46.60
12977;DHT22;6553;48.412;9.514;2023-02-15T06:52:30;19.00;46.50
12977;DHT22;6553;48.412;9.514;2023-02-15T06:54:56;19.00;46.50
12977;DHT22;6553;48.412;9.514;2023-02-15T06:57:22;19.00;46.50
12977;DHT22;6553;48.412;9.514;2023-02-15T06:59:47;19.00;46.40
12977;DHT22;6553;48.412;9.514;2023-02-15T07:02:14;19.00;46.40
12977;DHT22;6553;48.412;9.514;2023-02-15T07:04:40;19.00;46.40
12977;DHT22;6553;48.412;9.514;2023-02-15T07:07:10;19.00;46.40
12977;DHT22;6553;48.412;9.514;2023-02-15T07:09:37;19.00;46.40
12977;DHT22;6553;48.412;9.514;2023-02-15T07:12:03;19.00;46.50
12977;DHT22;6553;48.412;9.514;2023-02-15T07:14:48;19.00;46.40
12977;DHT22;6553;48.412;9.514;2023-02-15T07:17:14;19.00;46.40
12977;DHT22;6553;48.412;9.514;2023-02-15T07:19:40;19.00;46.40
12977;DHT22;6553;48.412;9.514;2023-02-15T07:22:05;19.00;46.40
12977;DHT22;6553;48.412;9.514;2023-02-15T07:24:31;19.00;46.40
12977;DHT22;6553;48.412;9.514;2023-02-15T07:26:58;19.00;46.40
12977;DHT22;6553;48.412;9.514;2023-02-15T07:29:24;19.00;46.40
12977;DHT22;6553;48.412;9.514;2023-02-15T07:31:50;19.00;46.40
12977;DHT22;6553;48.412;9.514;2023-02-15T07:34:16;19.00;46.40
12977;DHT22;6553;48.412;9.514;2023-02-15T07:36:42;19.10;46.50
12977;DHT22;6553;48.412;9.514;2023-02-15T07:39:10;19.00;47.00
12977;DHT22;6553;48.412;9.514;2023-02-15T07:41:36;19.00;46.40
12977;DHT22;6553;48.412;9.514;2023-02-15T07:44:14;19.00;46.30
12977;DHT22;6553;48.412;9.514;2023-02-15T07:46:40;19.00;46.40
12977;DHT22;6553;48.412;9.514;2023-02-15T07:49:07;19.00;46.30
12977;DHT22;6553;48.412;9.514;2023-02-15T07:51:33;19.10;46.40
12977;DHT22;6553;48.412;9.514;2023-02-15T07:53:59;19.00;46.30
12977;DHT22;6553;48.412;9.514;2023-02-15T07:56:25;19.10;46.40
12977;DHT22;6553;48.412;9.514;2023-02-15T07:58:50;19.10;46.40
12977;DHT22;6553;48.412;9.514;2023-02-15T08:01:31;19.10;46.30
12977;DHT22;6553;48.412;9.514;2023-02-15T08:04:00;19.10;46.40
12977;DHT22;6553;48.412;9.514;2023-02-15T08:06:29;19.10;46.40
12977;DHT22;6553;48.412;9.514;2023-02-15T08:08:56;19.10;46.30
12977;DHT22;6553;48.412;9.514;2023-02-15T08:11:28;19.20;46.50
12977;DHT22;6553;48.412;9.514;2023-02-15T08:14:11;19.20;46.50
12977;DHT22;6553;48.412;9.514;2023-02-15T08:16:53;19.20;46.50
12977;DHT22;6553;48.412;9.514;2023-02-15T08:19:27;19.20;46.50
12977;DHT22;6553;48.412;9.514;2023-02-15T08:21:57;19.20;46.60
12977;DHT22;6553;48.412;9.514;2023-02-15T08:24:24;19.20;46.60
12977;DHT22;6553;48.412;9.514;2023-02-15T08:26:52;19.20;46.60
12977;DHT22;6553;48.412;9.514;2023-02-15T08:29:24;19.20;46.60
12977;DHT22;6553;48.412;9.514;2023-02-15T08:31:56;19.20;46.60
12977;DHT22;6553;48.412;9.514;2023-02-15T08:34:28;19.20;46.60
12977;DHT22;6553;48.412;9.514;2023-02-15T08:36:55;19.20;47.20
12977;DHT22;6553;48.412;9.514;2023-02-15T08:39:21;19.30;46.70
12977;DHT22;6553;48.412;9.514;2023-02-15T08:41:47;19.30;46.70
12977;DHT22;6553;48.412;9.514;2023-02-15T08:44:15;19.30;47.30
12977;DHT22;6553;48.412;9.514;2023-02-15T08:46:45;19.30;46.80
12977;DHT22;6553;48.412;9.514;2023-02-15T08:49:15;19.30;46.90
12977;DHT22;6553;48.412;9.514;2023-02-15T08:51:42;19.30;46.80
12977;DHT22;6553;48.412;9.514;2023-02-15T08:54:12;19.30;46.90
12977;DHT22;6553;48.412;9.514;2023-02-15T08:56:40;19.30;46.90
12977;DHT22;6553;48.412;9.514;2023-02-15T08:59:13;19.30;46.90
12977;DHT22;6553;48.412;9.514;2023-02-15T09:01:41;19.40;47.00
12977;DHT22;6553;48.412;9.514;2023-02-15T09:04:08;19.40;47.00
12977;DHT22;6553;48.412;9.514;2023-02-15T09:06:34;19.40;47.00
12977;DHT22;6553;48.412;9.514;2023-02-15T09:09:01;19.40;47.00
12977;DHT22;6553;48.412;9.514;2023-02-15T09:11:30;19.40;47.00
12977;DHT22;6553;48.412;9.514;2023-02-15T09:14:08;19.40;47.00
12977;DHT22;6553;48.412;9.514;2023-02-15T09:16:40;19.40;47.00
12977;DHT22;6553;48.412;9.514;2023-02-15T09:19:07;19.40;47.00
12977;DHT22;6553;48.412;9.514;2023-02-15T09:21:36;19.40;47.00
12977;DHT22;6553;48.412;9.514;2023-02-15T09:24:09;19.40;47.10
12977;DHT22;6553;48.412;9.514;2023-02-15T09:26:38;19.50;47.20
12977;DHT22;6553;48.412;9.514;2023-02-15T09:29:06;19.40;47.20
12977;DHT22;6553;48.412;9.514;2023-02-15T09:31:41;19.50;47.30
12977;DHT22;6553;48.412;9.514;2023-02-15T09:34:10;19.40;47.20
12977;DHT22;6553;48.412;9.514;2023-02-15T09:36:40;19.50;47.30
12977;DHT22;6553;48.412;9.514;2023-02-15T09:39:17;19.50;47.30
12977;DHT22;6553;48.412;9.514;2023-02-15T10:05:21;19.60;47.50
12977;DHT22;6553;48.412;9.514;2023-02-15T10:20:43;19.60;47.50
12977;DHT22;6553;48.412;9.514;2023-02-15T10:23:46;19.50;47.60
12977;DHT22;6553;48.412;9.514;2023-02-15T10:26:45;19.60;47.60
12977;DHT22;6553;48.412;9.514;2023-02-15T10:29:35;19.60;47.50
12977;DHT22;6553;48.412;9.514;2023-02-15T10:32:26;19.60;47.60
12977;DHT22;6553;48.412;9.514;2023-02-15T10:35:07;19.60;48.20
12977;DHT22;6553;48.412;9.514;2023-02-15T10:38:55;19.60;47.60
12977;DHT22;6553;48.412;9.514;2023-02-15T11:06:17;19.60;47.40
12977;DHT22;6553;48.412;9.514;2023-02-15T11:08:49;19.60;47.40
12977;DHT22;6553;48.412;9.514;2023-02-15T11:11:38;19.70;47.50
12977;DHT22;6553;48.412;9.514;2023-02-15T11:17:45;19.70;47.50
12977;DHT22;6553;48.412;9.514;2023-02-15T11:23:15;19.70;47.50
12977;DHT22;6553;48.412;9.514;2023-02-15T11:25:46;19.70;47.60
12977;DHT22;6553;48.412;9.514;2023-02-15T11:28:30;19.70;47.60
12977;DHT22;6553;48.412;9.514;2023-02-15T11:31:02;19.70;47.50
12977;DHT22;6553;48.412;9.514;2023-02-15T11:33:41;19.70;47.50
12977;DHT22;6553;48.412;9.514;2023-02-15T11:36:36;19.70;47.50
12977;DHT22;6553;48.412;9.514;2023-02-15T11:39:09;19.70;47.50
12977;DHT22;6553;48.412;9.514;2023-02-15T11:41:53;19.70;47.50
12977;DHT22;6553;48.412;9.514;2023-02-15T11:44:39;19.70;47.50
12977;DHT22;6553;48.412;9.514;2023-02-15T11:47:11;19.70;47.50
12977;DHT22;6553;48.412;9.514;2023-02-15T11:49:37;19.70;47.50
12977;DHT22;6553;48.412;9.514;2023-02-15T11:52:12;19.70;47.50
12977;DHT22;6553;48.412;9.514;2023-02-15T11:54:42;19.70;48.10
12977;DHT22;6553;48.412;9.514;2023-02-15T11:57:15;19.70;47.30
12977;DHT22;6553;48.412;9.514;2023-02-15T12:00:02;19.70;47.30
12977;DHT22;6553;48.412;9.514;2023-02-15T12:02:37;19.70;47.30
12977;DHT22;6553;48.412;9.514;2023-02-15T12:05:13;19.70;47.40
12977;DHT22;6553;48.412;9.514;2023-02-15T12:08:02;19.80;47.50
12977;DHT22;6553;48.412;9.514;2023-02-15T12:10:38;19.70;47.50
12977;DHT22;6553;48.412;9.514;2023-02-15T12:13:13;19.70;47.50
12977;DHT22;6553;48.412;9.514;2023-02-15T12:15:50;19.80;47.60
12977;DHT22;6553;48.412;9.514;2023-02-15T12:18:34;19.80;47.40
12977;DHT22;6553;48.412;9.514;2023-02-15T12:21:31;19.80;47.40
12977;DHT22;6553;48.412;9.514;2023-02-15T12:24:11;19.80;47.50
12977;DHT22;6553;48.412;9.514;2023-02-15T12:26:40;19.80;47.50
12977;DHT22;6553;48.412;9.514;2023-02-15T12:29:16;19.80;48.10
12977;DHT22;6553;48.412;9.514;2023-02-15T12:31:46;19.80;47.50
12977;DHT22;6553;48.412;9.514;2023-02-15T12:34:22;19.80;47.70
12977;DHT22;6553;48.412;9.514;2023-02-15T12:36:54;19.80;47.60
12977;DHT22;6553;48.412;9.514;2023-02-15T12:39:27;19.80;47.40
12977;DHT22;6553;48.412;9.514;2023-02-15T12:46:56;19.80;47.50
12977;DHT22;6553;48.412;9.514;2023-02-15T12:49:39;19.80;47.50
12977;DHT22;6553;48.412;9.514;2023-02-15T12:52:25;19.80;47.60
12977;DHT22;6553;48.412;9.514;2023-02-15T12:54:51;19.80;47.50
12977;DHT22;6553;48.412;9.514;2023-02-15T13:00:05;19.80;47.70
12977;DHT22;6553;48.412;9.514;2023-02-15T13:02:44;19.80;47.70
12977;DHT22;6553;48.412;9.514;2023-02-15T13:08:16;19.80;47.80
12977;DHT22;6553;48.412;9.514;2023-02-15T13:11:06;19.80;47.60
12977;DHT22;6553;48.412;9.514;2023-02-15T13:13:51;19.80;47.90
12977;DHT22;6553;48.412;9.514;2023-02-15T13:16:33;19.80;47.80
12977;DHT22;6553;48.412;9.514;2023-02-15T13:19:15;19.80;47.80
12977;DHT22;6553;48.412;9.514;2023-02-15T13:21:47;19.80;48.00
12977;DHT22;6553;48.412;9.514;2023-02-15T13:24:19;19.80;47.90
12977;DHT22;6553;48.412;9.514;2023-02-15T13:26:49;19.80;48.00
12977;DHT22;6553;48.412;9.514;2023-02-15T13:29:24;19.80;47.80
12977;DHT22;6553;48.412;9.514;2023-02-15T13:31:53;19.90;48.10
12977;DHT22;6553;48.412;9.514;2023-02-15T13:34:35;19.80;48.00
12977;DHT22;6553;48.412;9.514;2023-02-15T13:37:27;19.90;48.20
12977;DHT22;6553;48.412;9.514;2023-02-15T13:49:17;19.90;48.40
12977;DHT22;6553;48.412;9.514;2023-02-15T13:55:14;19.90;48.00
12977;DHT22;6553;48.412;9.514;2023-02-15T14:07:07;19.80;48.00
12977;DHT22;6553;48.412;9.514;2023-02-15T14:09:43;19.80;48.20
12977;DHT22;6553;48.412;9.514;2023-02-15T14:15:41;19.90;48.20
12977;DHT22;6553;48.412;9.514;2023-02-15T14:26:56;19.90;48.20
12977;DHT22;6553;48.412;9.514;2023-02-15T14:29:59;19.90;47.90
12977;DHT22;6553;48.412;9.514;2023-02-15T14:32:39;19.90;48.10
12977;DHT22;6553;48.412;9.514;2023-02-15T14:35:17;19.90;48.10
12977;DHT22;6553;48.412;9.514;2023-02-15T14:43:48;19.90;48.00
12977;DHT22;6553;48.412;9.514;2023-02-15T14:46:35;19.90;48.00
12977;DHT22;6553;48.412;9.514;2023-02-15T14:49:13;19.90;48.00
12977;DHT22;6553;48.412;9.514;2023-02-15T14:56:46;19.90;48.00
12977;DHT22;6553;48.412;9.514;2023-02-15T15:02:56;19.90;47.80
12977;DHT22;6553;48.412;9.514;2023-02-15T15:08:01;19.90;47.90
12977;DHT22;6553;48.412;9.514;2023-02-15T15:10:37;19.90;48.00
12977;DHT22;6553;48.412;9.514;2023-02-15T15:15:56;19.90;47.90
12977;DHT22;6553;48.412;9.514;2023-02-15T15:21:11;19.90;48.00
12977;DHT22;6553;48.412;9.514;2023-02-15T15:32:49;19.90;48.00
12977;DHT22;6553;48.412;9.514;2023-02-15T15:41:18;19.90;48.60
12977;DHT22;6553;48.412;9.514;2023-02-15T15:50:22;19.90;48.00
12977;DHT22;6553;48.412;9.514;2023-02-15T15:52:58;19.90;48.00
12977;DHT22;6553;48.412;9.514;2023-02-15T15:55:29;19.90;47.90
12977;DHT22;6553;48.412;9.514;2023-02-15T15:58:02;19.90;47.80
12977;DHT22;6553;48.412;9.514;2023-02-15T16:00:52;19.90;48.00
12977;DHT22;6553;48.412;9.514;2023-02-15T16:03:25;19.90;48.00
12977;DHT22;6553;48.412;9.514;2023-02-15T16:05:53;19.90;48.00
12977;DHT22;6553;48.412;9.514;2023-02-15T16:08:29;19.90;48.10
12977;DHT22;6553;48.412;9.514;2023-02-15T16:10:58;19.90;48.20
12977;DHT22;6553;48.412;9.514;2023-02-15T16:13:25;19.90;48.10
12977;DHT22;6553;48.412;9.514;2023-02-15T16:15:53;19.90;48.20
12977;DHT22;6553;48.412;9.514;2023-02-15T16:18:23;19.90;48.30
12977;DHT22;6553;48.412;9.514;2023-02-15T16:20:57;19.90;48.40
12977;DHT22;6553;48.412;9.514;2023-02-15T16:28:51;19.90;48.40
12977;DHT22;6553;48.412;9.514;2023-02-15T16:31:18;19.90;48.40
12977;DHT22;6553;48.412;9.514;2023-02-15T16:33:45;19.90;48.40
12977;DHT22;6553;48.412;9.514;2023-02-15T16:36:23;19.90;48.50
12977;DHT22;6553;48.412;9.514;2023-02-15T16:41:22;19.90;48.50
12977;DHT22;6553;48.412;9.514;2023-02-15T16:43:50;19.90;48.50
12977;DHT22;6553;48.412;9.514;2023-02-15T16:46:51;19.90;48.50
12977;DHT22;6553;48.412;9.514;2023-02-15T16:49:37;19.90;48.50
12977;DHT22;6553;48.412;9.514;2023-02-15T16:52:06;19.90;48.50
12977;DHT22;6553;48.412;9.514;2023-02-15T16:54:33;19.90;48.60
12977;DHT22;6553;48.412;9.514;2023-02-15T16:57:00;19.90;48.60
12977;DHT22;6553;48.412;9.514;2023-02-15T16:59:41;19.80;48.60
12977;DHT22;6553;48.412;9.514;2023-02-15T17:02:19;19.80;48.60
12977;DHT22;6553;48.412;9.514;2023-02-15T17:05:12;19.90;48.60
12977;DHT22;6553;48.412;9.514;2023-02-15T17:07:48;19.80;48.60
12977;DHT22;6553;48.412;9.514;2023-02-15T17:10:32;19.80;48.50
12977;DHT22;6553;48.412;9.514;2023-02-15T17:13:16;19.80;48.50
12977;DHT22;6553;48.412;9.514;2023-02-15T17:15:45;19.90;48.70
12977;DHT22;6553;48.412;9.514;2023-02-15T17:18:34;19.80;48.60
12977;DHT22;6553;48.412;9.514;2023-02-15T17:21:18;19.80;48.60
12977;DHT22;6553;48.412;9.514;2023-02-15T17:23:48;19.80;48.60
12977;DHT22;6553;48.412;9.514;2023-02-15T17:26:24;19.90;48.60
12977;DHT22;6553;48.412;9.514;2023-02-15T17:28:56;19.80;48.50
12977;DHT22;6553;48.412;9.514;2023-02-15T17:31:29;19.80;48.50
12977;DHT22;6553;48.412;9.514;2023-02-15T17:33:58;19.80;48.50
12977;DHT22;6553;48.412;9.514;2023-02-15T17:36:28;19.80;48.60
12977;DHT22;6553;48.412;9.514;2023-02-15T17:41:33;19.80;48.50
12977;DHT22;6553;48.412;9.514;2023-02-15T17:44:01;19.80;48.60
12977;DHT22;6553;48.412;9.514;2023-02-15T17:46:33;19.80;48.60
12977;DHT22;6553;48.412;9.514;2023-02-15T17:49:02;19.80;48.50
12977;DHT22;6553;48.412;9.514;2023-02-15T17:51:30;19.80;48.60
12977;DHT22;6553;48.412;9.514;2023-02-15T17:53:56;19.80;48.60
12977;DHT22;6553;48.412;9.514;2023-02-15T17:56:40;19.80;48.50
12977;DHT22;6553;48.412;9.514;2023-02-15T17:59:06;19.80;48.50
12977;DHT22;6553;48.412;9.514;2023-02-15T18:01:34;19.80;49.20
12977;DHT22;6553;48.412;9.514;2023-02-15T18:04:22;19.80;48.50
12977;DHT22;6553;48.412;9.514;2023-02-15T18:07:09;19.80;48.60
12977;DHT22;6553;48.412;9.514;2023-02-15T18:09:55;19.80;48.60
12977;DHT22;6553;48.412;9.514;2023-02-15T18:12:40;19.80;48.70
12977;DHT22;6553;48.412;9.514;2023-02-15T18:15:06;19.80;48.60
12977;DHT22;6553;48.412;9.514;2023-02-15T18:20:30;19.80;48.60
12977;DHT22;6553;48.412;9.514;2023-02-15T18:22:56;19.80;48.60
12977;DHT22;6553;48.412;9.514;2023-02-15T18:25:22;19.80;48.50
12977;DHT22;6553;48.412;9.514;2023-02-15T18:27:50;19.80;48.60
12977;DHT22;6553;48.412;9.514;2023-02-15T18:30:19;19.80;48.60
12977;DHT22;6553;48.412;9.514;2023-02-15T18:32:48;19.80;48.60
12977;DHT22;6553;48.412;9.514;2023-02-15T18:35:18;19.80;48.60
12977;DHT22;6553;48.412;9.514;2023-02-15T18:37:47;19.80;48.60
12977;DHT22;6553;48.412;9.514;2023-02-15T18:40:19;19.70;48.50
12977;DHT22;6553;48.412;9.514;2023-02-15T18:42:47;19.80;48.50
12977;DHT22;6553;48.412;9.514;2023-02-15T18:45:27;19.70;48.50
12977;DHT22;6553;48.412;9.514;2023-02-15T18:47:57;19.70;48.50
12977;DHT22;6553;48.412;9.514;2023-02-15T18:50:24;19.70;48.40
12977;DHT22;6553;48.412;9.514;2023-02-15T18:52:53;19.80;48.50
12977;DHT22;6553;48.412;9.514;2023-02-15T18:57:50;19.70;48.40
12977;DHT22;6553;48.412;9.514;2023-02-15T19:00:20;19.70;48.40
12977;DHT22;6553;48.412;9.514;2023-02-15T19:02:46;19.70;48.50
12977;DHT22;6553;48.412;9.514;2023-02-15T19:05:13;19.70;48.40
12977;DHT22;6553;48.412;9.514;2023-02-15T19:07:41;19.70;48.40
12977;DHT22;6553;48.412;9.514;2023-02-15T19:10:21;19.70;48.40
12977;DHT22;6553;48.412;9.514;2023-02-15T19:12:49;19.70;48.40
12977;DHT22;6553;48.412;9.514;2023-02-15T19:15:19;19.70;48.40
12977;DHT22;6553;48.412;9.514;2023-02-15T19:17:50;19.70;48.50
12977;DHT22;6553;48.412;9.514;2023-02-15T19:20:25;19.70;48.40
12977;DHT22;6553;48.412;9.514;2023-02-15T19:22:55;19.70;48.40
12977;DHT22;6553;48.412;9.514;2023-02-15T19:25:25;19.70;48.50
12977;DHT22;6553;48.412;9.514;2023-02-15T19:27:53;19.70;48.40
12977;DHT22;6553;48.412;9.514;2023-02-15T19:30:25;19.70;48.40
12977;DHT22;6553;48.412;9.514;2023-02-15T19:32:55;19.70;48.40
12977;DHT22;6553;48.412;9.514;2023-02-15T19:35:23;19.70;48.40
12977;DHT22;6553;48.412;9.514;2023-02-15T19:37:59;19.70;48.40